Archival Weather

Václav Havel Intl Apt

Prague, Czechia (LKPR)

Report from: Friday, May 26, 2023 6:30 AM CEST
Current time: Sunday, July 14, 2024 1:46 PM CEST

Current weather – Weather history – Daily summaries
Weather forecast

Temperature10.0°C (50.0°F)
Wind chill8.8°C (47.8°F)
Dew point7.0°C (44.6°F)
Winds 5 kts (2.6 m/s, 5.8 mph) North-Northwest (330°)
Clouds Sky clear
Altimeter30.24 in.Hg (1024 mB)
Relative humidity82 %
Density altitude-817 ft. (-249 m)
Remarks Ceiling and visibility OK
No significant changes expected in the next two hours
Flight conditions Visual Meteorological Conditions
Raw dataLKPR 260430Z 33005KT CAVOK 10/07 Q1024 NOSIG
An error has occurred. This application may no longer respond until reloaded. Reload 🗙